Terminal Aerodrome Forecast
Issued by NWS Melbourne, FL

Home | Current Version | Previous Version | Text Only | Print | Product List | Glossary On
Versions: 1 2 3 4 5 6 7 8 9 10 11 12 13
000
FTUS42 KMLB 202300 RRA
TAFDAB
TAF
KDAB 202343Z 2100/2124 VRB03KT P6SM FEW030 SCT130 SCT250
     FM211400 26004KT P6SM SCT030 SCT150 BKN250
     FM211900 07006KT P6SM FEW035 SCT150 BKN250=

USA.gov is the U.S. government's official web portal to all federal, state and local government web resources and services.